createdAt,value
2022-09-30T00:02:35.387Z,8.88
2022-09-30T00:07:39.922Z,8.99
2022-09-30T00:12:42.934Z,8.94
2022-09-30T00:17:46.023Z,8.90
2022-09-30T00:22:50.463Z,8.84
2022-09-30T00:27:53.471Z,8.83
2022-09-30T00:32:56.602Z,8.64
2022-09-30T00:38:01.238Z,8.72
2022-09-30T00:43:04.351Z,8.70
2022-09-30T00:48:11.111Z,8.73
2022-09-30T00:53:19.908Z,8.73
2022-09-30T00:58:29.095Z,8.68
2022-09-30T01:03:35.062Z,8.61
2022-09-30T01:08:41.582Z,8.67
2022-09-30T01:13:48.246Z,8.69
2022-09-30T01:19:05.465Z,8.65
2022-09-30T01:24:42.284Z,8.20
2022-09-30T01:30:12.506Z,8.54
2022-09-30T01:35:24.455Z,8.40
2022-09-30T01:40:41.169Z,8.35
2022-09-30T01:45:50.627Z,8.01
2022-09-30T01:51:01.828Z,8.21
2022-09-30T01:56:13.740Z,8.19
2022-09-30T02:01:22.798Z,8.07
2022-09-30T02:06:32.294Z,8.10
2022-09-30T02:11:37.389Z,7.72
2022-09-30T02:16:43.672Z,8.09
2022-09-30T02:21:57.141Z,8.04
2022-09-30T02:27:02.572Z,7.88
2022-09-30T02:32:13.450Z,7.88
2022-09-30T02:37:22.499Z,7.82
2022-09-30T02:42:28.847Z,7.87
2022-09-30T02:47:44.933Z,7.68
2022-09-30T02:53:02.936Z,7.73
2022-09-30T02:58:13.077Z,7.79
2022-09-30T03:03:21.630Z,7.72
2022-09-30T03:08:27.305Z,7.73
2022-09-30T03:13:57.048Z,7.65
2022-09-30T03:19:14.603Z,7.73
2022-09-30T03:24:36.213Z,7.76
2022-09-30T03:29:48.618Z,7.72
2022-09-30T03:35:04.682Z,7.73
2022-09-30T03:40:17.691Z,7.75
2022-09-30T03:45:30.697Z,7.71
2022-09-30T03:50:36.478Z,7.67
2022-09-30T03:55:54.279Z,7.72
2022-09-30T04:01:00.209Z,7.70
2022-09-30T04:06:03.850Z,7.65
2022-09-30T04:11:08.396Z,7.69
2022-09-30T04:16:11.669Z,7.71
2022-09-30T04:21:18.403Z,7.70
2022-09-30T04:26:23.202Z,7.64
2022-09-30T04:31:27.003Z,7.56
2022-09-30T04:36:33.265Z,7.54
2022-09-30T04:41:38.341Z,7.51
2022-09-30T04:46:44.179Z,7.58
2022-09-30T04:51:47.504Z,7.59
2022-09-30T04:56:52.327Z,7.46
2022-09-30T05:01:55.426Z,7.60
2022-09-30T05:07:01.971Z,7.57
2022-09-30T05:12:06.783Z,7.15
2022-09-30T05:17:10.218Z,7.18
2022-09-30T05:22:14.157Z,7.39
2022-09-30T05:27:18.865Z,7.64
2022-09-30T05:32:22.646Z,7.63
2022-09-30T05:37:25.891Z,7.63
2022-09-30T05:42:32.630Z,7.50
2022-09-30T05:47:35.787Z,7.65
2022-09-30T05:52:38.874Z,7.68
2022-09-30T05:57:43.551Z,7.69
2022-09-30T06:02:46.749Z,7.69
2022-09-30T06:07:50.440Z,7.63
2022-09-30T06:12:54.929Z,7.73
2022-09-30T06:18:00.677Z,7.71
2022-09-30T06:23:04.629Z,7.69
2022-09-30T06:28:08.949Z,7.80
2022-09-30T06:33:12.659Z,7.83
2022-09-30T06:38:17.296Z,7.86
2022-09-30T06:43:22.051Z,7.61
2022-09-30T06:48:36.627Z,7.89
2022-09-30T06:53:41.880Z,7.86
2022-09-30T06:58:46.777Z,7.90
2022-09-30T07:03:54.031Z,7.80
2022-09-30T07:08:57.878Z,8.02
2022-09-30T07:14:04.509Z,8.16
2022-09-30T07:19:10.359Z,8.24
2022-09-30T07:24:15.323Z,8.32
2022-09-30T07:29:19.761Z,8.37
2022-09-30T07:34:22.903Z,8.51
2022-09-30T07:39:26.320Z,8.55
2022-09-30T07:44:31.638Z,8.70
2022-09-30T07:49:34.819Z,8.79
2022-09-30T07:54:42.508Z,8.88
2022-09-30T07:59:48.928Z,8.98
2022-09-30T08:04:52.145Z,9.11
2022-09-30T08:09:55.521Z,9.20
2022-09-30T08:15:00.191Z,9.31
2022-09-30T08:20:03.284Z,9.47
2022-09-30T08:25:07.510Z,9.65
2022-09-30T08:30:13.283Z,9.93
2022-09-30T08:35:16.619Z,10.31
2022-09-30T08:40:22.895Z,10.64
2022-09-30T08:45:37.516Z,11.10
2022-09-30T08:50:53.039Z,11.55
2022-09-30T08:56:02.786Z,11.92
2022-09-30T09:01:18.004Z,12.45
2022-09-30T09:06:37.470Z,12.95
2022-09-30T09:11:54.747Z,13.46
2022-09-30T09:17:15.406Z,13.91
2022-09-30T09:22:23.849Z,14.25
2022-09-30T09:27:37.106Z,14.66
2022-09-30T09:32:43.278Z,15.15
2022-09-30T09:38:15.338Z,15.37
2022-09-30T09:43:27.541Z,15.84
2022-09-30T09:48:36.404Z,16.32
2022-09-30T09:53:45.915Z,16.71
2022-09-30T09:59:10.510Z,17.18
2022-09-30T10:04:19.166Z,17.39
2022-09-30T10:09:31.861Z,17.70
2022-09-30T10:14:36.989Z,17.87
2022-09-30T10:19:49.068Z,17.99
2022-09-30T10:25:09.874Z,18.11
2022-09-30T10:30:12.925Z,18.12
2022-09-30T10:35:23.710Z,18.21
2022-09-30T10:40:32.054Z,18.19
2022-09-30T10:45:41.376Z,18.15
2022-09-30T10:50:51.874Z,18.42
2022-09-30T10:55:56.315Z,18.40
2022-09-30T11:01:08.195Z,18.19
2022-09-30T11:06:16.337Z,17.71
2022-09-30T11:11:23.046Z,17.64
2022-09-30T11:16:33.390Z,17.81
2022-09-30T11:21:43.401Z,17.96
2022-09-30T11:26:59.264Z,17.90
2022-09-30T11:32:15.451Z,17.76
2022-09-30T11:37:29.948Z,18.04
2022-09-30T11:42:41.336Z,17.74
2022-09-30T11:47:59.817Z,17.55
2022-09-30T11:53:19.104Z,17.27
2022-09-30T11:58:40.898Z,17.14
2022-09-30T12:03:51.038Z,17.12
2022-09-30T12:09:00.914Z,17.32
2022-09-30T12:14:11.926Z,17.29
2022-09-30T12:19:23.052Z,17.63
2022-09-30T12:24:36.963Z,17.12
2022-09-30T12:30:01.014Z,17.18
2022-09-30T12:35:24.657Z,17.26
2022-09-30T12:40:45.164Z,17.45
2022-09-30T12:46:05.420Z,17.59
2022-09-30T12:51:09.603Z,17.48
2022-09-30T12:56:16.761Z,17.42
2022-09-30T13:01:24.282Z,17.75
2022-09-30T13:06:29.504Z,18.12
2022-09-30T13:11:45.333Z,18.12
2022-09-30T13:17:20.242Z,18.22
2022-09-30T13:22:57.640Z,18.48
2022-09-30T13:28:32.249Z,18.66
2022-09-30T13:33:44.660Z,18.72
2022-09-30T13:38:48.013Z,18.66
2022-09-30T13:44:03.366Z,18.67
2022-09-30T13:49:13.469Z,18.78
2022-09-30T13:54:26.585Z,18.95
2022-09-30T13:59:49.431Z,18.77
2022-09-30T14:05:23.183Z,18.84
2022-09-30T14:10:58.884Z,18.86
2022-09-30T14:16:33.609Z,18.86
2022-09-30T14:21:40.817Z,18.90
2022-09-30T14:27:04.777Z,19.01
2022-09-30T14:32:19.947Z,19.18
2022-09-30T14:37:28.847Z,19.36
2022-09-30T14:42:36.833Z,19.60
2022-09-30T14:47:46.579Z,19.94
2022-09-30T14:52:57.089Z,20.16
2022-09-30T14:58:23.443Z,20.08
2022-09-30T15:03:29.128Z,19.80
2022-09-30T15:08:32.543Z,19.45
2022-09-30T15:13:36.216Z,19.25
2022-09-30T15:18:47.987Z,19.06
2022-09-30T15:23:53.892Z,18.91
2022-09-30T15:28:56.969Z,18.65
2022-09-30T15:34:13.741Z,18.88
2022-09-30T15:39:23.700Z,19.21
2022-09-30T15:44:39.059Z,19.18
2022-09-30T15:49:50.428Z,18.91
2022-09-30T15:54:53.537Z,18.51
2022-09-30T16:00:02.320Z,18.20
2022-09-30T16:05:09.183Z,18.11
2022-09-30T16:10:22.174Z,17.97
2022-09-30T16:15:25.529Z,17.68
2022-09-30T16:20:30.229Z,17.50
2022-09-30T16:25:34.470Z,17.24
2022-09-30T16:30:42.617Z,17.12
2022-09-30T16:35:48.304Z,16.96
2022-09-30T16:40:51.368Z,16.74
2022-09-30T16:45:54.658Z,16.63
2022-09-30T16:51:06.666Z,16.45
2022-09-30T16:56:16.191Z,16.23
2022-09-30T17:01:21.522Z,16.09
2022-09-30T17:06:29.811Z,15.93
2022-09-30T17:11:36.205Z,15.83
2022-09-30T17:16:39.227Z,15.78
2022-09-30T17:21:43.685Z,15.66
2022-09-30T17:26:46.719Z,15.53
2022-09-30T17:31:50.044Z,15.33
2022-09-30T17:36:55.613Z,15.27
2022-09-30T17:42:16.517Z,15.07
2022-09-30T17:47:21.458Z,15.04
2022-09-30T17:52:33.111Z,14.82
2022-09-30T17:57:40.013Z,14.49
2022-09-30T18:02:44.817Z,14.65
2022-09-30T18:07:49.293Z,14.56
2022-09-30T18:12:55.141Z,14.49
2022-09-30T18:18:00.390Z,14.43
2022-09-30T18:23:05.018Z,14.32
2022-09-30T18:28:08.945Z,14.34
2022-09-30T18:33:11.952Z,14.28
2022-09-30T18:38:16.392Z,14.23
2022-09-30T18:43:20.567Z,14.17
2022-09-30T18:48:27.353Z,14.13
2022-09-30T18:53:34.778Z,14.15
2022-09-30T18:58:39.408Z,14.10
2022-09-30T19:03:42.676Z,14.09
2022-09-30T19:08:47.159Z,14.05
2022-09-30T19:13:53.163Z,14.03
2022-09-30T19:18:57.629Z,14.00
2022-09-30T19:24:06.620Z,14.02
2022-09-30T19:29:12.003Z,13.92
2022-09-30T19:34:26.114Z,13.97
2022-09-30T19:39:45.584Z,13.95
2022-09-30T19:44:49.489Z,13.95
2022-09-30T19:49:52.572Z,13.94
2022-09-30T19:55:08.005Z,13.90
2022-09-30T20:00:16.572Z,13.91
2022-09-30T20:05:19.594Z,13.87
2022-09-30T20:10:24.102Z,13.89
2022-09-30T20:15:46.374Z,13.89
2022-09-30T20:20:50.042Z,13.87
2022-09-30T20:25:55.260Z,13.86
2022-09-30T20:30:58.306Z,13.84
2022-09-30T20:36:01.686Z,13.86
2022-09-30T20:41:07.836Z,13.84
2022-09-30T20:46:11.828Z,13.83
2022-09-30T20:51:17.575Z,13.84
2022-09-30T20:56:23.463Z,13.82
2022-09-30T21:01:26.531Z,13.80
2022-09-30T21:06:31.062Z,13.80
2022-09-30T21:11:35.586Z,13.70
2022-09-30T21:16:38.942Z,13.54
2022-09-30T21:21:42.028Z,13.33
2022-09-30T21:26:46.554Z,13.14
2022-09-30T21:31:49.788Z,12.91
2022-09-30T21:36:52.857Z,12.81
2022-09-30T21:41:57.629Z,12.76
2022-09-30T21:47:03.499Z,12.62
2022-09-30T21:52:09.273Z,12.56
2022-09-30T21:57:13.838Z,12.38
2022-09-30T22:02:17.040Z,12.34
2022-09-30T22:07:21.846Z,12.21
2022-09-30T22:12:26.359Z,12.13
2022-09-30T22:17:31.313Z,12.04
2022-09-30T22:22:34.697Z,11.97
2022-09-30T22:27:39.039Z,11.89
2022-09-30T22:32:42.074Z,11.82
2022-09-30T22:37:58.949Z,11.75
2022-09-30T22:43:33.537Z,11.72
2022-09-30T22:48:37.020Z,11.67
2022-09-30T22:53:39.979Z,11.61
2022-09-30T22:58:46.804Z,11.56
2022-09-30T23:03:54.139Z,11.53
2022-09-30T23:08:58.487Z,11.56
2022-09-30T23:14:03.961Z,11.47
2022-09-30T23:19:07.071Z,11.51
2022-09-30T23:24:10.780Z,11.46
2022-09-30T23:29:16.051Z,11.41
2022-09-30T23:34:19.245Z,11.41
2022-09-30T23:39:22.407Z,11.39
2022-09-30T23:44:28.646Z,11.35
2022-09-30T23:49:35.856Z,11.37
2022-09-30T23:54:39.002Z,11.36
2022-09-30T23:59:43.320Z,11.36
